Language: 


Des rapports , des résumés tant et plus, au choix de chacun....


Données Historiques de Météogheer
Journalier Rapport pour Janvier 1, 2018 Unitée:  Impériale    Métrique   Les deux
Suivant Jour »
Journalier Hebdomadaire Mensuel Annuel Sur mesure
  Max: Min: Moyenne:
Température: 46.9 °F 42.1 °F 43.9 °F
Point de rosée: 44.6 °F 41 °F 43 °F
Humidité: 98% 81% 95%
Vent: 26.4mph 0mph 9.1mph
Rafales: 35.6mph - -
Vent- - SW
Pression: 29.7 in 29.3 in -
Pluie: 0.57 in    
Historical Graphs
 
 
Données tabulaires pour Janvier 1, 2018
Heure Température Point de rosée Pression Vent Vent Rafales Humidité Pluie Taux (Horaire) Conditions
00:00 45.1 °F 42.8 °F 29.5 in WSW 17.7 mph 31.3 mph 89% 0.03 in
00:05 45 °F 42.8 °F 29.5 in WSW 15.7 mph 25.1 mph 90% 0.03 in
00:07 45 °F 42.8 °F 29.5 in SW 14.8 mph 25.1 mph 91% 0.03 in
00:12 45.1 °F 42.8 °F 29.5 in WSW 17.7 mph 25.1 mph 91% 0.03 in
00:14 45.3 °F 42.8 °F 29.5 in WSW 13.9 mph 22.4 mph 91% 0.05 in
00:20 45.9 °F 42.8 °F 29.5 in WSW 16.3 mph 30.4 mph 90% 0.05 in
00:21 45.9 °F 42.8 °F 29.5 in WSW 25.3 mph 30.4 mph 90% 0.05 in
00:26 46.4 °F 42.8 °F 29.5 in WSW 25.1 mph 35.6 mph 87% 0.05 in
00:31 46.8 °F 42.8 °F 29.5 in WSW 20.4 mph 35.6 mph 86% 0.04 in
00:35 46.9 °F 42.8 °F 29.5 in WSW 26.4 mph 34.2 mph 85% 0.02 in
00:41 46.9 °F 42.8 °F 29.5 in WSW 21.9 mph 34.2 mph 85% 0.02 in
00:46 46.8 °F 42.8 °F 29.5 in WSW 23 mph 32.2 mph 85% 0.02 in
00:51 46.9 °F 42.8 °F 29.5 in WSW 25.9 mph 33.1 mph 85% 0.01 in
00:52 46.9 °F 42.8 °F 29.5 in WSW 13.4 mph 33.1 mph 85% 0.01 in
00:57 46.8 °F 42.8 °F 29.5 in WSW 21.3 mph 33.1 mph 86% 0.01 in
00:58 46.8 °F 42.8 °F 29.5 in WSW 22.6 mph 33.1 mph 86% 0.01 in
01:00 46.6 °F 42.8 °F 29.5 in WSW 24.6 mph 35.6 mph 85% 0.01 in
01:05 46.4 °F 42.8 °F 29.5 in WSW 19.9 mph 35.6 mph 86% 0.01 in
01:07 46.4 °F 42.8 °F 29.5 in WSW 15.2 mph 35.6 mph 86% 0.01 in
01:12 46.4 °F 42.8 °F 29.5 in WSW 26.4 mph 32 mph 86% 0.01 in
01:16 46.2 °F 42.8 °F 29.5 in WSW 17.7 mph 32.7 mph 88% 0 in
01:20 46.2 °F 42.8 °F 29.5 in WSW 24.6 mph 32.7 mph 89% 0 in
01:25 45.9 °F 42.8 °F 29.5 in WSW 19.7 mph 26.2 mph 92% 0 in
01:30 45.9 °F 42.8 °F 29.5 in WSW 22.6 mph 26.2 mph 92% 0 in
01:31 45.9 °F 44.6 °F 29.5 in WSW 23 mph 26.2 mph 93% 0 in
01:36 45.9 °F 44.6 °F 29.5 in WSW 19 mph 25.1 mph 93% 0 in
01:37 45.9 °F 44.6 °F 29.5 in WSW 19.5 mph 25.1 mph 93% 0 in
01:42 45.9 °F 44.6 °F 29.5 in SSW 25.3 mph 31.8 mph 93% 0.01 in
01:45 45.7 °F 44.6 °F 29.5 in WSW 18.8 mph 31.8 mph 93% 0.01 in
01:49 45.7 °F 42.8 °F 29.5 in WSW 17 mph 31.8 mph 92% 0.01 in
01:54 45.7 °F 42.8 °F 29.5 in WSW 22.4 mph 25.9 mph 92% 0.01 in
01:59 45.5 °F 42.8 °F 29.5 in WSW 17.7 mph 25.7 mph 92% 0.01 in
02:04 45.7 °F 42.8 °F 29.5 in WSW 16.3 mph 26.4 mph 92% 0.01 in
02:06 45.7 °F 44.6 °F 29.5 in WSW 22.4 mph 26.4 mph 93% 0.01 in
02:11 45.7 °F 44.6 °F 29.5 in WSW 22.4 mph 26.4 mph 93% 0.01 in
02:12 45.7 °F 42.8 °F 29.5 in WSW 22.4 mph 26.4 mph 92% 0.01 in
02:17 45.7 °F 42.8 °F 29.5 in WSW 22.4 mph 22.4 mph 92% 0.01 in
02:18 45.7 °F 42.8 °F 29.5 in WSW 22.4 mph 22.4 mph 92% 0.01 in
02:23 45.7 °F 42.8 °F 29.5 in WSW 17.2 mph 22.4 mph 92% 0.01 in
02:28 45.3 °F 42.8 °F 29.5 in WSW 17.2 mph 22.4 mph 93% 0.01 in
02:29 45.3 °F 42.8 °F 29.5 in WSW 17.2 mph 22.4 mph 93% 0.01 in
02:35 45.1 °F 42.8 °F 29.5 in WSW 17.2 mph 17.2 mph 93% 0.01 in
02:37 45.1 °F 42.8 °F 29.5 in WSW 17.2 mph 17.2 mph 94% 0.01 in
02:40 45.1 °F 42.8 °F 29.5 in WSW 11 mph 17.2 mph 94% 0 in
02:45 45.1 °F 42.8 °F 29.5 in WSW 17.7 mph 17.7 mph 94% 0 in
02:47 45.1 °F 42.8 °F 29.5 in WSW 17.7 mph 17.7 mph 94% 0 in
02:50 45.1 °F 42.8 °F 29.5 in WSW 17.7 mph 17.7 mph 94% 0 in
02:53 45.1 °F 42.8 °F 29.5 in WSW 12.8 mph 17.7 mph 94% 0 in
02:58 45.1 °F 42.8 °F 29.6 in WSW 19.5 mph 19.5 mph 94% 0 in
03:02 45.1 °F 42.8 °F 29.6 in WSW 21 mph 21 mph 94% 0 in
03:07 45 °F 42.8 °F 29.6 in WSW 23 mph 23.3 mph 94% 0 in
03:09 45 °F 42.8 °F 29.6 in WSW 23 mph 23.3 mph 94% 0 in
03:10 44.8 °F 42.8 °F 29.6 in WSW 23 mph 23.3 mph 94% 0 in
03:14 44.8 °F 42.8 °F 29.6 in SW 13.2 mph 23.3 mph 93% 0 in
03:15 44.8 °F 42.8 °F 29.6 in SW 13.2 mph 23.3 mph 93% 0 in
03:17 44.8 °F 42.8 °F 29.6 in SSW 14.3 mph 23 mph 93% 0 in
03:22 44.8 °F 42.8 °F 29.6 in SSW 14.3 mph 14.3 mph 93% 0 in
03:25 44.8 °F 42.8 °F 29.6 in SSW 14.3 mph 14.3 mph 93% 0 in
03:26 44.8 °F 42.8 °F 29.6 in SSW 14.3 mph 14.3 mph 93% 0 in
03:30 44.8 °F 42.8 °F 29.6 in SSW 13 mph 14.3 mph 93% 0 in
03:35 44.8 °F 42.8 °F 29.6 in SW 10.3 mph 14.3 mph 93% 0 in
03:38 44.8 °F 42.8 °F 29.6 in SW 10.3 mph 14.3 mph 93% 0 in
03:41 44.8 °F 42.8 °F 29.5 in SW 10.3 mph 13 mph 92% 0 in
03:44 44.8 °F 42.8 °F 29.5 in SW 10.3 mph 10.3 mph 92% 0 in
03:46 44.8 °F 42.8 °F 29.5 in SSW 13.2 mph 13.2 mph 92% 0 in
03:47 44.8 °F 42.8 °F 29.5 in SSW 13.2 mph 13.2 mph 92% 0 in
03:51 44.6 °F 42.8 °F 29.5 in SSW 13.2 mph 13.2 mph 92% 0 in
03:54 44.6 °F 42.8 °F 29.5 in WSW 12.3 mph 13.2 mph 91% 0 in
03:57 44.6 °F 42.8 °F 29.5 in WSW 12.3 mph 13.2 mph 91% 0 in
04:00 44.6 °F 42.8 °F 29.5 in WSW 12.3 mph 13.2 mph 91% 0 in
04:05 44.4 °F 42.8 °F 29.5 in WSW 12.3 mph 12.3 mph 92% 0 in
04:10 44.4 °F 42.8 °F 29.5 in SSW 8.1 mph 12.3 mph 92% 0 in
04:15 44.2 °F 42.8 °F 29.6 in WSW 10.1 mph 12.3 mph 92% 0 in
04:19 44.2 °F 42.8 °F 29.6 in WSW 10.1 mph 10.7 mph 92% 0 in
04:24 44.2 °F 42.8 °F 29.6 in WSW 10.1 mph 10.1 mph 92% 0 in
04:25 44.2 °F 42.8 °F 29.6 in WSW 10.1 mph 10.1 mph 92% 0 in
04:30 44.2 °F 42.8 °F 29.6 in SW 8.7 mph 10.3 mph 92% 0 in
04:31 44.2 °F 42.8 °F 29.6 in SW 8.7 mph 10.3 mph 92% 0 in
04:33 44.2 °F 42.8 °F 29.6 in SW 8.7 mph 10.3 mph 92% 0 in
04:38 44.2 °F 42.8 °F 29.6 in SW 10.5 mph 10.5 mph 92% 0 in
04:43 44.1 °F 42.8 °F 29.6 in SSW 10.3 mph 10.5 mph 92% 0 in
04:44 44.1 °F 42.8 °F 29.6 in SSW 10.3 mph 10.5 mph 92% 0 in
04:45 44.1 °F 42.8 °F 29.6 in SSW 10.3 mph 10.5 mph 92% 0 in
04:50 44.1 °F 42.8 °F 29.6 in SSW 9.6 mph 10.5 mph 92% 0 in
04:52 44.1 °F 42.8 °F 29.6 in WSW 6.5 mph 10.3 mph 92% 0 in
04:57 43.9 °F 42.8 °F 29.6 in SSW 7.8 mph 12.5 mph 93% 0 in
05:01 43.9 °F 42.8 °F 29.6 in SSW 7.8 mph 12.5 mph 93% 0 in
05:06 43.9 °F 42.8 °F 29.6 in SSW 6 mph 12.5 mph 93% 0 in
05:08 43.9 °F 42.8 °F 29.6 in SSW 6 mph 12.5 mph 93% 0 in
05:13 43.9 °F 42.8 °F 29.6 in SSW 7.4 mph 10.5 mph 93% 0 in
05:14 43.9 °F 42.8 °F 29.6 in SSW 7.4 mph 10.5 mph 93% 0 in
05:19 43.9 °F 42.8 °F 29.6 in SSW 7.4 mph 10.5 mph 93% 0 in
05:20 43.9 °F 42.8 °F 29.6 in SSW 8.7 mph 10.5 mph 93% 0 in
05:21 43.9 °F 42.8 °F 29.6 in SSW 8.7 mph 10.5 mph 93% 0 in
05:26 43.7 °F 42.8 °F 29.6 in SSW 10.1 mph 10.1 mph 93% 0 in
05:29 43.9 °F 42.8 °F 29.6 in SW 8.7 mph 10.1 mph 94% 0 in
05:34 43.9 °F 42.8 °F 29.6 in SSW 11.2 mph 12.5 mph 94% 0 in
05:40 44.1 °F 42.8 °F 29.6 in SSW 7.2 mph 12.5 mph 94% 0 in
05:45 44.2 °F 42.8 °F 29.6 in South 9.8 mph 11.2 mph 94% 0 in
05:48 44.2 °F 42.8 °F 29.6 in South 9.8 mph 10.5 mph 94% 0 in
05:53 44.6 °F 42.8 °F 29.6 in SSW 10.3 mph 10.3 mph 94% 0 in
05:55 44.6 °F 42.8 °F 29.6 in SSW 10.3 mph 10.3 mph 94% 0 in
06:00 44.6 °F 42.8 °F 29.6 in SSW 15.4 mph 23.5 mph 93% 0 in
06:01 44.6 °F 42.8 °F 29.6 in SSW 15.4 mph 23.5 mph 93% 0 in
06:05 44.1 °F 42.8 °F 29.6 in SSW 15.4 mph 23.5 mph 93% 0.01 in
06:10 43.7 °F 42.8 °F 29.6 in SSW 15.4 mph 15.4 mph 94% 0.01 in
06:12 43.7 °F 42.8 °F 29.6 in SSW 15.4 mph 15.4 mph 94% 0.02 in
06:17 43.5 °F 42.8 °F 29.6 in WSW 13 mph 15.4 mph 95% 0.02 in
06:22 43.3 °F 42.8 °F 29.6 in SSW 8.9 mph 15.4 mph 95% 0.02 in
06:23 43.3 °F 42.8 °F 29.6 in SSW 8.9 mph 15.4 mph 95% 0.02 in
06:24 43.3 °F 42.8 °F 29.6 in SW 10.3 mph 13 mph 96% 0.02 in
06:29 43.2 °F 42.8 °F 29.6 in SW 10.3 mph 12.1 mph 96% 0.02 in
06:35 43 °F 42.8 °F 29.6 in WSW 8.5 mph 10.3 mph 96% 0.02 in
06:40 42.8 °F 42.8 °F 29.6 in WSW 9.8 mph 10.3 mph 96% 0.02 in
06:45 42.8 °F 42.8 °F 29.6 in SW 11 mph 13.6 mph 96% 0.02 in
06:47 42.8 °F 42.8 °F 29.6 in SW 11.2 mph 13.6 mph 96% 0.02 in
06:52 42.8 °F 42.8 °F 29.6 in WSW 6.5 mph 13.6 mph 97% 0.02 in
06:56 43 °F 42.8 °F 29.6 in WSW 10.3 mph 14.8 mph 97% 0.02 in
07:01 43 °F 42.8 °F 29.6 in SSW 8.1 mph 14.8 mph 97% 0.02 in
07:06 43.3 °F 42.8 °F 29.6 in WSW 12.8 mph 16.8 mph 97% 0.01 in
07:10 43.3 °F 42.8 °F 29.6 in WSW 12.8 mph 16.8 mph 98% 0.02 in
07:13 43.3 °F 42.8 °F 29.6 in WSW 12.8 mph 16.8 mph 98% 0.01 in
07:17 43.3 °F 42.8 °F 29.6 in WSW 12.8 mph 12.8 mph 98% 0.01 in
07:20 43.3 °F 42.8 °F 29.6 in WSW 12.8 mph 12.8 mph 98% 0.02 in
07:25 43.3 °F 42.8 °F 29.6 in WSW 12.8 mph 12.8 mph 98% 0.04 in
07:27 43.3 °F 42.8 °F 29.6 in WSW 12.8 mph 12.8 mph 98% 0.04 in
07:32 43.3 °F 42.8 °F 29.6 in WSW 8.7 mph 12.8 mph 98% 0.04 in
07:36 43.2 °F 42.8 °F 29.6 in WSW 8.7 mph 12.8 mph 98% 0.04 in
07:38 43.2 °F 42.8 °F 29.6 in WSW 8.7 mph 12.8 mph 98% 0.04 in
07:43 43.2 °F 42.8 °F 29.6 in WSW 8.7 mph 8.7 mph 98% 0.05 in
07:48 43 °F 42.8 °F 29.6 in WSW 8.7 mph 8.7 mph 98% 0.06 in
07:50 43 °F 42.8 °F 29.6 in WSW 8.7 mph 8.7 mph 98% 0.06 in
07:55 43 °F 42.8 °F 29.6 in WSW 8.7 mph 8.7 mph 98% 0.06 in
08:01 43 °F 42.8 °F 29.6 in WSW 8.7 mph 8.7 mph 98% 0.06 in
08:06 43 °F 42.8 °F 29.6 in SW 8.5 mph 8.5 mph 98% 0.06 in
08:11 42.8 °F 42.8 °F 29.6 in SSW 8.1 mph 10.5 mph 98% 0.05 in
08:13 42.8 °F 42.8 °F 29.6 in SSW 7.8 mph 10.5 mph 98% 0.05 in
08:18 42.8 °F 42.8 °F 29.6 in WSW 7.8 mph 11.9 mph 98% 0.04 in
08:23 42.8 °F 42.8 °F 29.6 in WSW 8.5 mph 11.9 mph 98% 0.02 in
08:24 42.6 °F 42.8 °F 29.6 in SW 7.6 mph 11.9 mph 98% 0.02 in
08:29 42.6 °F 42.8 °F 29.6 in SSW 13 mph 13 mph 98% 0.02 in
08:35 42.4 °F 42.8 °F 29.6 in SW 8.7 mph 13 mph 98% 0.02 in
08:37 42.4 °F 42.8 °F 29.6 in SSW 8.5 mph 13 mph 98% 0.02 in
08:42 42.4 °F 42.8 °F 29.6 in SSW 12.3 mph 12.3 mph 98% 0.01 in
08:43 42.4 °F 42.8 °F 29.6 in SSW 12.3 mph 12.3 mph 98% 0.01 in
08:44 42.4 °F 42.8 °F 29.6 in SSW 12.3 mph 12.3 mph 98% 0.01 in
08:46 42.3 °F 42.8 °F 29.6 in WSW 8.5 mph 12.3 mph 98% 0 in
08:51 42.3 °F 42.8 °F 29.6 in SW 7.4 mph 12.3 mph 97% 0 in
08:57 42.3 °F 42.8 °F 29.6 in SSW 6.5 mph 8.7 mph 97% 0 in
08:58 42.4 °F 42.8 °F 29.6 in SSW 5.8 mph 8.7 mph 97% 0 in
08:59 42.4 °F 42.8 °F 29.6 in SSW 5.8 mph 8.7 mph 97% 0 in
09:04 42.4 °F 42.8 °F 29.6 in SSW 4.7 mph 9.8 mph 97% 0 in
09:09 42.4 °F 42.8 °F 29.6 in SSW 8.7 mph 9.8 mph 97% 0 in
09:11 42.6 °F 42.8 °F 29.6 in SSW 7.6 mph 9.8 mph 97% 0 in
09:16 42.6 °F 42.8 °F 29.6 in SSW 6.3 mph 8.7 mph 97% 0 in
09:21 42.4 °F 42.8 °F 29.6 in SSW 7.6 mph 9.2 mph 97% 0 in
09:23 42.4 °F 42.8 °F 29.6 in SSW 8.5 mph 9.2 mph 97% 0 in
09:28 42.4 °F 42.8 °F 29.6 in SSW 5.8 mph 8.7 mph 97% 0 in
09:31 42.4 °F 42.8 °F 29.6 in SSW 5.8 mph 8.7 mph 97% 0 in
09:36 42.4 °F 42.8 °F 29.6 in SSW 9.4 mph 10.3 mph 96% 0 in
09:37 42.4 °F 42.8 °F 29.6 in SSW 8.5 mph 10.3 mph 96% 0 in
09:39 42.4 °F 42.8 °F 29.6 in South 5.6 mph 10.3 mph 96% 0 in
09:42 42.4 °F 42.8 °F 29.6 in South 3.8 mph 10.3 mph 96% 0 in
09:47 42.6 °F 42.8 °F 29.6 in South 4.9 mph 9.4 mph 96% 0 in
09:48 42.6 °F 42.8 °F 29.6 in South 5.4 mph 9.4 mph 96% 0 in
09:53 42.6 °F 42.8 °F 29.6 in SSW 6.3 mph 8.1 mph 96% 0 in
09:58 42.6 °F 42.8 °F 29.6 in South 5.4 mph 10.7 mph 96% 0 in
10:04 42.8 °F 42.8 °F 29.6 in South 8.5 mph 10.7 mph 96% 0 in
10:09 42.8 °F 42.8 °F 29.6 in South 7.6 mph 10.3 mph 96% 0 in
10:14 42.8 °F 42.8 °F 29.5 in SSW 5.6 mph 10.3 mph 96% 0 in
10:16 42.8 °F 42.8 °F 29.5 in SW 6.3 mph 10.3 mph 95% 0 in
10:20 43 °F 42.8 °F 29.5 in South 2.9 mph 10.3 mph 95% 0 in
10:22 43 °F 42.8 °F 29.5 in South 4.3 mph 10.3 mph 95% 0 in
10:27 43.2 °F 42.8 °F 29.6 in South 5.4 mph 10.3 mph 95% 0 in
10:28 43.2 °F 42.8 °F 29.6 in South 8.1 mph 10.3 mph 95% 0 in
10:32 43.2 °F 42.8 °F 29.6 in SSW 7.6 mph 10.3 mph 95% 0 in
10:37 43.3 °F 42.8 °F 29.6 in South 10.1 mph 11.2 mph 95% 0 in
10:42 43.5 °F 42.8 °F 29.6 in South 6.3 mph 11.9 mph 95% 0 in
10:47 43.5 °F 42.8 °F 29.6 in SSW 5.8 mph 11.9 mph 95% 0 in
10:50 43.7 °F 42.8 °F 29.6 in South 9.4 mph 12.3 mph 95% 0 in
10:55 43.9 °F 42.8 °F 29.6 in South 4.3 mph 12.3 mph 95% 0 in
11:00 43.9 °F 42.8 °F 29.6 in SSW 7.6 mph 10.7 mph 95% 0 in
11:01 43.9 °F 42.8 °F 29.6 in SSW 7.8 mph 10.7 mph 95% 0 in
11:05 44.1 °F 42.8 °F 29.6 in SSW 5.6 mph 11.9 mph 94% 0 in
11:10 44.2 °F 42.8 °F 29.6 in SSW 8.9 mph 12.1 mph 94% 0 in
11:15 44.4 °F 42.8 °F 29.5 in SSW 14.8 mph 14.8 mph 93% 0 in
11:20 44.6 °F 42.8 °F 29.5 in SSW 6 mph 15.2 mph 92% 0 in
11:21 44.6 °F 42.8 °F 29.5 in SSW 12.8 mph 15.2 mph 92% 0 in
11:26 44.6 °F 42.8 °F 29.5 in South 9.6 mph 15.2 mph 92% 0.01 in
11:28 44.6 °F 42.8 °F 29.5 in South 8.5 mph 13.2 mph 92% 0.01 in
11:33 44.6 °F 42.8 °F 29.5 in South 6.7 mph 13.2 mph 91% 0.01 in
11:36 44.6 °F 42.8 °F 29.5 in SSW 7.2 mph 13 mph 92% 0.01 in
11:40 44.6 °F 42.8 °F 29.5 in South 7.4 mph 9.8 mph 92% 0.01 in
11:43 44.6 °F 42.8 °F 29.5 in SSE 8.1 mph 10.3 mph 92% 0.01 in
11:48 44.6 °F 42.8 °F 29.5 in South 12.5 mph 12.5 mph 92% 0.01 in
11:49 44.6 °F 42.8 °F 29.5 in South 5.8 mph 12.5 mph 92% 0.01 in
11:50 44.6 °F 42.8 °F 29.5 in South 11.9 mph 12.5 mph 92% 0.01 in
11:55 44.6 °F 42.8 °F 29.5 in South 10.1 mph 12.5 mph 92% 0.01 in
11:57 44.6 °F 42.8 °F 29.5 in SSW 7.8 mph 12.5 mph 92% 0.01 in
12:02 44.6 °F 42.8 °F 29.5 in South 10.1 mph 12.3 mph 93% 0.01 in
12:07 44.6 °F 42.8 °F 29.5 in South 7.4 mph 12.8 mph 93% 0.01 in
12:09 44.6 °F 42.8 °F 29.5 in SSE 8.7 mph 12.8 mph 93% 0.01 in
12:14 44.6 °F 42.8 °F 29.5 in SSE 5.4 mph 17.2 mph 94% 0.01 in
12:16 44.6 °F 42.8 °F 29.5 in SSW 7.4 mph 17.2 mph 94% 0.01 in
12:17 44.6 °F 42.8 °F 29.5 in SSW 10.1 mph 17.2 mph 94% 0.01 in
12:22 44.8 °F 42.8 °F 29.5 in SSW 5.8 mph 17.2 mph 94% 0.01 in
12:24 44.8 °F 42.8 °F 29.5 in South 9.8 mph 13.2 mph 94% 0.01 in
12:29 45 °F 42.8 °F 29.5 in SSW 11.4 mph 13.2 mph 94% 0 in
12:30 45 °F 42.8 °F 29.5 in South 8.5 mph 13.2 mph 94% 0 in
12:32 45 °F 44.6 °F 29.5 in SSW 12.3 mph 16.8 mph 95% 0 in
12:37 45 °F 44.6 °F 29.5 in South 3.8 mph 16.8 mph 95% 0 in
12:39 45 °F 44.6 °F 29.5 in SSW 6.3 mph 16.8 mph 95% 0 in
12:44 45 °F 44.6 °F 29.4 in South 6.3 mph 10.5 mph 95% 0 in
12:45 45 °F 44.6 °F 29.4 in South 8.1 mph 10.5 mph 95% 0 in
12:50 45 °F 44.6 °F 29.4 in SSE 5.8 mph 10.5 mph 95% 0 in
12:52 44.8 °F 42.8 °F 29.4 in SSW 8.1 mph 10.5 mph 95% 0 in
12:57 44.8 °F 44.6 °F 29.4 in South 4.9 mph 10.7 mph 96% 0 in
12:58 44.8 °F 44.6 °F 29.4 in South 5.6 mph 10.7 mph 96% 0 in
13:03 44.8 °F 44.6 °F 29.4 in South 5.4 mph 11.2 mph 96% 0 in
13:05 44.8 °F 44.6 °F 29.4 in South 7.4 mph 11.2 mph 96% 0.01 in
13:08 44.8 °F 44.6 °F 29.4 in SSW 8.7 mph 13 mph 97% 0.01 in
13:12 44.8 °F 44.6 °F 29.4 in SSW 10.1 mph 13 mph 97% 0.01 in
13:17 44.6 °F 44.6 °F 29.4 in SSW 7.6 mph 13 mph 97% 0.02 in
13:19 44.6 °F 44.6 °F 29.4 in South 12.8 mph 12.8 mph 97% 0.03 in
13:24 44.4 °F 44.6 °F 29.4 in SSW 9.8 mph 12.8 mph 98% 0.03 in
13:26 44.4 °F 44.6 °F 29.4 in SSW 7.6 mph 12.8 mph 98% 0.05 in
13:31 44.1 °F 44.6 °F 29.4 in South 7.8 mph 12.1 mph 98% 0.06 in
13:32 44.1 °F 44.6 °F 29.4 in South 6.3 mph 10.5 mph 98% 0.06 in
13:37 43.9 °F 44.6 °F 29.4 in Calm   10.5 mph 98% 0.07 in
13:42 43.7 °F 44.6 °F 29.4 in SE 3.8 mph 8.1 mph 98% 0.09 in
13:44 43.7 °F 44.6 °F 29.4 in SSE 6 mph 7.2 mph 98% 0.09 in
13:47 43.7 °F 44.6 °F 29.4 in SE 2 mph 6.9 mph 98% 0.09 in
13:49 43.7 °F 44.6 °F 29.4 in Calm   6.9 mph 98% 0.1 in
13:54 43.7 °F 44.6 °F 29.4 in Calm   6.9 mph 98% 0.1 in
13:55 43.7 °F 44.6 °F 29.4 in SSE 3.6 mph 5.6 mph 98% 0.1 in
14:00 43.5 °F 42.8 °F 29.4 in SSE 3.8 mph 7.8 mph 98% 0.11 in
14:01 43.7 °F 44.6 °F 29.4 in SSE 4 mph 7.8 mph 98% 0.11 in
14:06 43.7 °F 44.6 °F 29.4 in SSE 5.6 mph 7.8 mph 98% 0.1 in
14:08 43.7 °F 44.6 °F 29.4 in South 7.8 mph 8.9 mph 98% 0.11 in
14:13 43.7 °F 44.6 °F 29.4 in SE 6.5 mph 11 mph 98% 0.1 in
14:18 43.7 °F 44.6 °F 29.4 in Calm   11 mph 98% 0.11 in
14:23 43.7 °F 44.6 °F 29.4 in SSE 0.9 mph 7.8 mph 98% 0.1 in
14:26 43.7 °F 44.6 °F 29.4 in SSE 2.9 mph 7.8 mph 98% 0.1 in
14:31 43.7 °F 44.6 °F 29.4 in Calm   8.5 mph 98% 0.1 in
14:33 43.7 °F 44.6 °F 29.4 in South 4 mph 8.5 mph 98% 0.1 in
14:34 43.7 °F 44.6 °F 29.4 in SSE 3.8 mph 8.5 mph 98% 0.1 in
14:39 43.7 °F 44.6 °F 29.4 in Calm   9.6 mph 98% 0.1 in
14:40 43.7 °F 44.6 °F 29.4 in South 1.3 mph 9.6 mph 98% 0.1 in
14:45 43.7 °F 44.6 °F 29.4 in Calm   9.6 mph 98% 0.11 in
14:50 43.5 °F 42.8 °F 29.4 in South 3.4 mph 6.7 mph 98% 0.11 in
14:55 43.5 °F 42.8 °F 29.4 in Calm   6.7 mph 98% 0.12 in
15:00 43.5 °F 42.8 °F 29.4 in Calm   4.7 mph 98% 0.13 in
15:06 43.5 °F 42.8 °F 29.4 in South 3.6 mph 8.7 mph 98% 0.15 in
15:11 43.5 °F 42.8 °F 29.4 in Calm   8.7 mph 98% 0.15 in
15:12 43.5 °F 42.8 °F 29.4 in Calm   8.5 mph 98% 0.15 in
15:15 43.5 °F 42.8 °F 29.4 in Calm   5.6 mph 98% 0.16 in
15:19 43.5 °F 42.8 °F 29.4 in Calm   3.6 mph 98% 0.15 in
15:23 43.3 °F 42.8 °F 29.4 in SSW 2.7 mph 3.6 mph 98% 0.16 in
15:29 43.3 °F 42.8 °F 29.3 in SSW 3.6 mph 10.1 mph 98% 0.16 in
15:30 43.3 °F 42.8 °F 29.3 in South 3.8 mph 10.1 mph 98% 0.16 in
15:35 43.5 °F 42.8 °F 29.3 in South 3.4 mph 6.3 mph 98% 0.16 in
15:38 43.5 °F 42.8 °F 29.3 in SSW 3.4 mph 4.9 mph 98% 0.15 in
15:40 43.5 °F 42.8 °F 29.3 in Calm   5.4 mph 98% 0.16 in
15:45 43.5 °F 42.8 °F 29.4 in Calm   5.4 mph 98% 0.15 in
15:47 43.5 °F 42.8 °F 29.4 in SSW 4.3 mph 5.4 mph 98% 0.15 in
15:52 43.3 °F 42.8 °F 29.4 in Calm   4.3 mph 98% 0.13 in
15:57 43.5 °F 42.8 °F 29.4 in WSW 1.6 mph 4.3 mph 98% 0.14 in
16:02 43.5 °F 42.8 °F 29.4 in Calm   2.9 mph 98% 0.13 in
16:03 43.5 °F 42.8 °F 29.4 in Calm   2.9 mph 98% 0.12 in
16:07 43.5 °F 42.8 °F 29.4 in Calm   2.2 mph 98% 0.13 in
16:12 43.5 °F 42.8 °F 29.4 in Calm     98% 0.13 in
16:16 43.5 °F 42.8 °F 29.4 in Calm     98% 0.12 in
16:21 43.5 °F 42.8 °F 29.4 in Calm     98% 0.12 in
16:26 43.3 °F 42.8 °F 29.4 in Calm     98% 0.11 in
16:33 43.3 °F 42.8 °F 29.4 in Calm     98% 0.1 in
16:38 43.3 °F 42.8 °F 29.4 in Calm     98% 0.1 in
16:43 43.3 °F 42.8 °F 29.4 in Calm     98% 0.09 in
16:45 43.3 °F 42.8 °F 29.4 in Calm     98% 0.09 in
16:46 43.3 °F 42.8 °F 29.4 in Calm     98% 0.09 in
16:51 43.3 °F 42.8 °F 29.4 in Calm     98% 0.07 in
16:52 43.3 °F 42.8 °F 29.4 in Calm     98% 0.06 in
16:57 43.3 °F 42.8 °F 29.4 in Calm   1.3 mph 98% 0.05 in
17:01 43.3 °F 42.8 °F 29.4 in Calm   1.3 mph 98% 0.05 in
17:06 43.2 °F 42.8 °F 29.4 in WSW 3.1 mph 3.8 mph 98% 0.03 in
17:08 43.2 °F 42.8 °F 29.4 in WSW 5.6 mph 5.6 mph 98% 0.03 in
17:11 43.3 °F 42.8 °F 29.4 in West 2.5 mph 5.6 mph 98% 0.02 in
17:14 43.3 °F 42.8 °F 29.4 in NW 7.4 mph 7.4 mph 98% 0.03 in
17:19 43.3 °F 42.8 °F 29.4 in WNW 6 mph 10.3 mph 98% 0.03 in
17:22 43.3 °F 42.8 °F 29.4 in SSW 5.6 mph 10.3 mph 98% 0.02 in
17:27 43.3 °F 42.8 °F 29.4 in WNW 7.4 mph 10.3 mph 98% 0.02 in
17:32 43.3 °F 42.8 °F 29.4 in North 5.4 mph 15.2 mph 98% 0.01 in
17:37 43.2 °F 42.8 °F 29.4 in West 1.6 mph 15.2 mph 98% 0.01 in
17:38 43.2 °F 42.8 °F 29.4 in West 1.6 mph 15.2 mph 98% 0.01 in
17:43 43 °F 42.8 °F 29.4 in NNW 6.3 mph 14.5 mph 98% 0.01 in
17:47 42.8 °F 42.8 °F 29.4 in WSW 3.4 mph 11.4 mph 98% 0.01 in
17:52 42.6 °F 42.8 °F 29.4 in West 2.5 mph 9.8 mph 98% 0.01 in
17:57 42.4 °F 42.8 °F 29.4 in West 6.5 mph 10.1 mph 98% 0.01 in
18:03 42.4 °F 42.8 °F 29.4 in NE 6.3 mph 9.8 mph 98% 0.01 in
18:04 42.4 °F 42.8 °F 29.4 in NNW 10.7 mph 10.7 mph 98% 0.01 in
18:09 42.3 °F 42.8 °F 29.4 in North 4.5 mph 10.7 mph 98% 0.01 in
18:10 42.3 °F 42.8 °F 29.4 in NNW 3.8 mph 10.7 mph 98% 0.01 in
18:15 42.3 °F 42.8 °F 29.4 in WNW 3.4 mph 8.5 mph 98% 0 in
18:22 42.3 °F 42.8 °F 29.4 in WNW 2.9 mph 11.4 mph 98% 0 in
18:23 42.3 °F 42.8 °F 29.4 in NNE 4.3 mph 11.4 mph 98% 0 in
18:27 42.3 °F 42.8 °F 29.5 in North 3.4 mph 11.4 mph 98% 0 in
18:28 42.3 °F 42.8 °F 29.5 in NNW 5.6 mph 11.4 mph 98% 0 in
18:29 42.3 °F 42.8 °F 29.5 in NNW 5.6 mph 11.4 mph 98% 0 in
18:34 42.1 °F 42.8 °F 29.5 in West 0.9 mph 8.5 mph 98% 0 in
18:37 42.1 °F 42.8 °F 29.5 in WNW 0.9 mph 8.1 mph 98% 0 in
18:39 42.3 °F 42.8 °F 29.5 in NW 7.8 mph 8.1 mph 98% 0 in
18:43 42.3 °F 42.8 °F 29.5 in NNW 2.9 mph 8.1 mph 98% 0 in
18:48 42.3 °F 42.8 °F 29.5 in NNW 7.2 mph 8.5 mph 98% 0 in
18:53 42.3 °F 42.8 °F 29.5 in NW 4.7 mph 8.5 mph 98% 0 in
18:54 42.3 °F 42.8 °F 29.5 in NNW 6 mph 7.8 mph 98% 0 in
18:59 42.3 °F 42.8 °F 29.5 in WNW 4.9 mph 11 mph 98% 0 in
19:02 42.3 °F 42.8 °F 29.5 in WNW 6.5 mph 11 mph 98% 0 in
19:04 42.3 °F 42.8 °F 29.5 in West 2.9 mph 11 mph 98% 0 in
19:07 42.3 °F 42.8 °F 29.5 in West 5.8 mph 11 mph 98% 0 in
19:10 42.3 °F 42.8 °F 29.5 in WSW 5.4 mph 8.7 mph 98% 0 in
19:13 42.3 °F 42.8 °F 29.5 in WNW 6.5 mph 10.1 mph 98% 0 in
19:17 42.4 °F 42.8 °F 29.5 in West 7.4 mph 10.1 mph 98% 0 in
19:20 42.4 °F 42.8 °F 29.5 in West 7.4 mph 10.3 mph 98% 0 in
19:25 42.4 °F 42.8 °F 29.5 in WNW 3.8 mph 10.3 mph 98% 0 in
19:29 42.4 °F 42.8 °F 29.5 in West 9.4 mph 9.4 mph 98% 0 in
19:31 42.6 °F 42.8 °F 29.5 in West 4.5 mph 10.7 mph 98% 0 in
19:34 42.6 °F 42.8 °F 29.5 in West 5.4 mph 10.7 mph 98% 0 in
19:37 42.6 °F 42.8 °F 29.5 in West 3.6 mph 10.7 mph 98% 0 in
19:40 42.6 °F 42.8 °F 29.5 in West 5.4 mph 8.7 mph 98% 0 in
19:45 42.6 °F 42.8 °F 29.5 in West 8.5 mph 10.1 mph 98% 0 in
19:48 42.6 °F 42.8 °F 29.5 in West 9.8 mph 10.7 mph 98% 0 in
19:53 42.6 °F 42.8 °F 29.5 in West 8.7 mph 10.7 mph 98% 0 in
19:54 42.8 °F 42.8 °F 29.5 in West 15.4 mph 15.4 mph 98% 0 in
19:58 42.8 °F 42.8 °F 29.6 in West 6.7 mph 15.4 mph 98% 0 in
20:01 42.8 °F 42.8 °F 29.6 in WNW 10.1 mph 15.4 mph 98% 0 in
20:06 42.8 °F 42.8 °F 29.6 in West 4.9 mph 11 mph 98% 0 in
20:08 42.8 °F 42.8 °F 29.6 in WNW 7.8 mph 11 mph 98% 0 in
20:12 42.8 °F 42.8 °F 29.6 in West 8.1 mph 11 mph 98% 0 in
20:16 42.8 °F 42.8 °F 29.6 in WSW 13.2 mph 13.2 mph 98% 0 in
20:18 43 °F 42.8 °F 29.6 in West 6.3 mph 13.2 mph 98% 0 in
20:22 43 °F 42.8 °F 29.6 in WNW 5.4 mph 13.2 mph 98% 0 in
20:27 43.2 °F 42.8 °F 29.6 in WSW 10.7 mph 11 mph 98% 0 in
20:32 43.2 °F 42.8 °F 29.6 in West 8.5 mph 11 mph 98% 0 in
20:37 43.2 °F 42.8 °F 29.6 in WNW 5.8 mph 12.8 mph 98% 0 in
20:38 43.2 °F 42.8 °F 29.6 in West 9.8 mph 12.8 mph 98% 0 in
20:43 43.3 °F 42.8 °F 29.6 in WNW 7.6 mph 11.2 mph 98% 0 in
20:44 43.3 °F 42.8 °F 29.6 in West 7.8 mph 11.2 mph 98% 0 in
20:47 43.3 °F 42.8 °F 29.6 in WSW 5.4 mph 10.5 mph 98% 0 in
20:50 43.3 °F 42.8 °F 29.6 in West 6.5 mph 10.5 mph 98% 0 in
20:54 43.3 °F 42.8 °F 29.6 in WSW 6.5 mph 10.7 mph 98% 0 in
20:59 43.2 °F 42.8 °F 29.6 in West 7.2 mph 10.7 mph 98% 0.01 in
21:02 43.2 °F 42.8 °F 29.6 in West 8.7 mph 10.7 mph 98% 0.01 in
21:04 43.2 °F 42.8 °F 29.6 in WSW 5.4 mph 9.8 mph 98% 0.01 in
21:09 43 °F 42.8 °F 29.6 in West 7.8 mph 9.8 mph 98% 0.01 in
21:14 43 °F 42.8 °F 29.6 in WSW 6.3 mph 8.7 mph 98% 0.01 in
21:20 42.8 °F 42.8 °F 29.6 in WSW 3.1 mph 8.7 mph 98% 0.01 in
21:25 42.8 °F 42.8 °F 29.6 in WNW 3.6 mph 9.4 mph 98% 0.01 in
21:29 42.6 °F 42.8 °F 29.6 in WSW 6 mph 9.4 mph 98% 0.01 in
21:34 42.6 °F 42.8 °F 29.6 in WSW 10.7 mph 10.7 mph 98% 0.01 in
21:40 42.8 °F 42.8 °F 29.6 in West 7.8 mph 11 mph 98% 0.01 in
21:41 42.8 °F 42.8 °F 29.6 in West 5.6 mph 11 mph 98% 0.01 in
21:46 43 °F 42.8 °F 29.6 in West 10.7 mph 11 mph 98% 0.01 in
21:47 43.2 °F 42.8 °F 29.6 in West 6.3 mph 11 mph 98% 0.01 in
21:50 43.3 °F 42.8 °F 29.6 in WSW 8.1 mph 11.2 mph 98% 0.01 in
21:55 43.5 °F 42.8 °F 29.6 in WSW 8.1 mph 11.2 mph 98% 0.01 in
21:56 43.5 °F 42.8 °F 29.6 in WSW 11 mph 11.2 mph 98% 0.01 in
22:01 43.7 °F 44.6 °F 29.6 in West 8.5 mph 12.1 mph 98% 0 in
22:06 44.1 °F 44.6 °F 29.6 in WSW 7.8 mph 15.2 mph 98% 0 in
22:10 44.2 °F 44.6 °F 29.6 in SSW 15.2 mph 15.2 mph 98% 0 in
22:12 44.2 °F 44.6 °F 29.6 in West 12.8 mph 15.2 mph 98% 0 in
22:17 44.6 °F 44.6 °F 29.6 in SW 12.3 mph 15.2 mph 97% 0 in
22:19 44.6 °F 44.6 °F 29.6 in West 11.9 mph 15.2 mph 96% 0 in
22:22 44.8 °F 44.6 °F 29.6 in West 10.1 mph 14.1 mph 96% 0 in
22:26 45 °F 44.6 °F 29.6 in WSW 10.3 mph 15.9 mph 95% 0 in
22:31 45.1 °F 42.8 °F 29.6 in West 10.5 mph 18.1 mph 94% 0 in
22:33 45.1 °F 42.8 °F 29.6 in WSW 10.7 mph 18.1 mph 93% 0 in
22:38 45.1 °F 42.8 °F 29.6 in West 7.6 mph 18.1 mph 92% 0 in
22:39 45.1 °F 42.8 °F 29.6 in West 9.6 mph 18.1 mph 92% 0 in
22:44 45.1 °F 42.8 °F 29.6 in WSW 9.8 mph 13.2 mph 91% 0 in
22:49 45.1 °F 42.8 °F 29.6 in WNW 12.5 mph 15.2 mph 90% 0 in
22:50 45.1 °F 42.8 °F 29.6 in West 6.7 mph 15.2 mph 90% 0 in
22:55 45.3 °F 42.8 °F 29.6 in West 12.1 mph 15.2 mph 89% 0 in
23:00 45.5 °F 42.8 °F 29.6 in WNW 13.2 mph 17.7 mph 88% 0 in
23:03 45.5 °F 42.8 °F 29.6 in West 10.5 mph 17.7 mph 88% 0 in
23:08 45.7 °F 42.8 °F 29.6 in West 15.2 mph 15.2 mph 87% 0 in
23:13 45.9 °F 42.8 °F 29.6 in WSW 10.3 mph 19.7 mph 86% 0 in
23:17 45.9 °F 42.8 °F 29.6 in West 17 mph 19.7 mph 85% 0 in
23:22 46 °F 41 °F 29.6 in WSW 13 mph 19.5 mph 83% 0 in
23:24 46 °F 41 °F 29.6 in West 10.3 mph 19.5 mph 83% 0 in
23:28 46 °F 41 °F 29.6 in WNW 9.2 mph 19.5 mph 83% 0 in
23:32 46 °F 41 °F 29.6 in West 13.6 mph 17.4 mph 83% 0 in
23:37 46 °F 41 °F 29.6 in West 17.4 mph 17.4 mph 83% 0 in
23:38 46 °F 41 °F 29.6 in West 15.2 mph 17.4 mph 83% 0 in
23:40 46 °F 41 °F 29.6 in West 15.4 mph 17.4 mph 83% 0 in
23:45 46 °F 41 °F 29.7 in West 23.5 mph 23.5 mph 83% 0 in
23:50 46.2 °F 41 °F 29.7 in West 10.5 mph 23.5 mph 81% 0 in
23:51 46.2 °F 41 °F 29.7 in SW 10.1 mph 23.5 mph 82% 0 in
23:56 46.2 °F 41 °F 29.7 in West 8.7 mph 19.5 mph 82% 0 in
23:57 46.2 °F 41 °F 29.7 in WSW 10.3 mph 19.2 mph 82% 0 in
23:59 46.2 °F 41 °F 29.7 in West 10.1 mph 19.2 mph 82% 0 in
Données Historique de Météo Turbie

Mise a jour : 22/05/2018 04:28:24
Généré par Cumulus 1.9.4 (1099)